Latest Weather Observations for Rhyll

IDV60901

Issued at 6:21 pm EDT Saturday 13 February 2016 (issued every 10 minutes, with the page automatically refreshed every 10 minutes)

About weather observations | Map of Melbourne area stations | Latest observations for Melbourne area | Other Formats
Station Details ID: 086373 Name: RHYLL Lat: -38.46 Lon: 145.31 Height: 13.4 m
Data from the previous 72 hours. | See also: Recent months at Rhyll
Date/Time
EDT
Tmp

°C
App
Tmp
°C
Dew
Point
°C
Rel
Hum
%
Delta-T

°C
Wind Press
QNH
hPa
Press
MSL
hPa
Rain
since
9 am
mm
Dir
 
Spd
km/h
Gust
km/h
Spd
kts
Gust
kts
13/06:00pm 22.0 20.8 16.1 69 3.6 SSW 17 28 9 15 1007.0 1006.9 0.0
13/05:30pm 22.9 23.0 16.4 67 4.0 SSW 11 24 6 13 1007.0 1006.9 0.0
13/05:00pm 22.4 20.9 16.2 68 3.8 SSW 19 35 10 19 1007.0 1006.9 0.0
13/04:30pm 22.2 20.6 16.0 68 3.7 SSW 19 32 10 17 1007.2 1007.1 0.0
13/04:00pm 22.4 20.8 17.5 74 3.0 SSW 22 35 12 19 1007.1 1007.0 0.0
13/03:30pm 22.9 21.5 18.0 74 3.1 SSW 22 35 12 19 1007.1 1007.0 0.0
13/03:00pm 22.6 21.0 16.4 68 3.8 SSW 20 32 11 17 1007.1 1007.0 0.0
13/02:30pm 24.9 24.5 16.3 59 5.3 S 13 28 7 15 1007.0 1006.9 0.0
13/02:00pm 24.2 23.9 16.5 62 4.7 S 13 24 7 13 1007.3 1007.2 0.0
13/01:30pm 24.6 24.1 16.8 62 4.8 SSW 15 24 8 13 1007.6 1007.5 0.0
13/01:00pm 24.5 23.7 17.2 63 4.5 SSW 17 26 9 14 1007.6 1007.5 0.0
13/12:30pm 25.8 26.0 17.7 61 5.1 SSW 13 22 7 12 1008.0 1007.9 0.0
13/12:00pm 25.4 23.8 16.0 56 5.7 SSW 19 32 10 17 1008.3 1008.2 0.0
13/11:30am 25.7 25.9 16.8 58 5.5 NNW 11 17 6 9 1008.5 1008.4 0.0
13/11:00am 25.3 26.3 15.3 54 6.0 NW 4 17 2 9 1008.6 1008.5 0.0
13/10:30am 24.3 24.7 13.8 52 6.2 WNW 4 19 2 10 1008.6 1008.5 0.0
13/10:00am 23.9 24.7 14.9 57 5.4 WNW 4 17 2 9 1008.6 1008.5 0.0
13/09:30am 23.8 24.5 18.0 70 3.6 NNW 11 20 6 11 1008.6 1008.5 0.0
13/09:00am 22.5 25.9 19.3 82 2.0 CALM 0 0 0 0 1008.8 1008.7 0.0
13/08:30am 20.3 23.3 18.4 89 1.2 CALM 0 0 0 0 1008.8 1008.7 0.0
13/08:00am 20.0 22.9 18.1 89 1.2 CALM 0 0 0 0 1008.4 1008.3 0.0
13/07:30am 19.1 21.2 17.2 89 1.2 N 2 19 1 10 1008.0 1007.9 0.0
13/07:00am 18.8 21.4 17.5 92 0.8 CALM 0 0 0 0 1008.1 1008.0 0.0
13/06:30am 18.8 21.4 17.6 93 0.7 CALM 0 0 0 0 1007.6 1007.5 0.0
13/06:00am 18.6 21.3 17.8 95 0.5 CALM 0 0 0 0 1007.5 1007.4 0.0
13/05:30am 18.6 21.2 17.6 94 0.6 CALM 0 0 0 0 1007.6 1007.5 0.0
13/05:00am 18.9 21.7 17.9 94 0.6 CALM 0 0 0 0 1007.8 1007.7 0.0
13/04:30am 19.1 19.0 17.9 93 0.7 NE 15 22 8 12 1007.9 1007.8 0.0
13/04:00am 19.1 21.9 17.9 93 0.7 CALM 0 0 0 0 1008.1 1008.0 0.0
13/03:30am 18.9 19.1 17.6 92 0.8 NNE 13 17 7 9 1008.5 1008.4 0.0
13/03:00am 19.0 19.9 17.5 91 0.9 NNE 9 15 5 8 1008.8 1008.7 0.0
13/02:30am 19.0 20.2 17.3 90 1.0 N 7 11 4 6 1009.1 1009.0 0.0
13/02:00am 19.1 20.5 17.8 92 0.8 N 7 11 4 6 1009.4 1009.3 0.0
13/01:30am 19.5 20.4 17.5 88 1.2 N 9 13 5 7 1009.7 1009.6 0.0
13/01:00am 19.3 19.8 17.4 89 1.2 N 11 15 6 8 1009.9 1009.8 0.0
13/12:30am 19.3 19.7 17.3 88 1.2 NNW 11 13 6 7 1010.1 1010.0 0.0
13/12:00am 19.5 20.4 17.6 89 1.2 N 9 11 5 6 1010.4 1010.3 0.0
 
Date/Time
EDT
Tmp

°C
App
Tmp
°C
Dew
Point
°C
Rel
Hum
%
Delta-T

°C
Wind Press
QNH
hPa
Press
MSL
hPa
Rain
since
9 am
mm
Dir
 
Spd
km/h
Gust
km/h
Spd
kts
Gust
kts
12/11:30pm 19.6 21.5 17.7 89 1.2 N 4 6 2 3 1010.8 1010.7 0.0
12/11:00pm 19.1 20.2 17.1 88 1.2 ENE 7 9 4 5 1011.1 1011.0 0.0
12/10:30pm 19.7 20.3 17.8 89 1.2 ESE 11 15 6 8 1011.6 1011.5 0.0
12/10:00pm 19.7 21.2 18.0 90 1.0 SSE 7 11 4 6 1012.1 1012.0 0.0
12/09:30pm 19.7 21.1 17.8 89 1.2 SSE 7 15 4 8 1011.8 1011.7 0.0
12/09:00pm 19.6 20.8 17.4 87 1.3 SSE 7 20 4 11 1011.9 1011.8 0.0
12/08:30pm 19.7 19.7 17.1 85 1.6 SSE 13 19 7 10 1011.8 1011.7 0.0
12/08:00pm 19.8 19.1 16.4 81 2.0 SSE 15 22 8 12 1012.1 1012.0 0.0
12/07:30pm 21.1 20.6 16.9 77 2.6 SSE 15 20 8 11 1012.2 1012.1 0.0
12/07:00pm 21.5 20.5 16.7 74 2.9 SSE 17 24 9 13 1012.1 1012.0 0.0
12/06:30pm 21.8 20.7 16.3 71 3.3 SSE 17 24 9 13 1012.4 1012.3 0.0
12/06:00pm 21.4 20.2 16.1 72 3.2 SSE 17 22 9 12 1012.5 1012.4 0.0
12/05:30pm 22.1 21.2 15.9 68 3.7 SSE 15 20 8 11 1012.5 1012.4 0.0
12/05:00pm 24.7 24.4 16.4 60 5.1 S 13 19 7 10 1012.8 1012.7 0.0
12/04:30pm 24.0 23.5 16.0 61 4.9 S 13 22 7 12 1013.1 1013.0 0.0
12/04:00pm 23.7 23.6 16.0 62 4.7 S 11 19 6 10 1013.5 1013.4 0.0
12/03:30pm 24.3 24.1 15.8 59 5.2 S 11 19 6 10 1013.7 1013.6 0.0
12/03:00pm 24.0 23.7 15.5 59 5.1 S 11 17 6 9 1014.1 1014.0 0.0
12/02:30pm 24.1 24.2 15.6 59 5.1 S 9 17 5 9 1014.6 1014.5 0.0
12/02:00pm 24.7 25.1 16.4 60 5.1 S 9 13 5 7 1014.7 1014.6 0.0
12/01:30pm 24.4 24.3 15.9 59 5.2 S 11 17 6 9 1015.0 1014.9 0.0
12/01:00pm 24.3 24.6 16.0 60 5.0 S 9 15 5 8 1015.5 1015.4 0.0
12/12:30pm 23.3 23.1 14.8 59 5.0 S 9 13 5 7 1015.7 1015.6 0.0
12/12:00pm 23.7 23.8 15.5 60 4.9 S 9 15 5 8 1016.0 1015.9 0.0
12/11:30am 22.8 22.9 15.4 63 4.4 S 9 13 5 7 1016.4 1016.3 0.0
12/11:00am 22.5 22.8 15.1 63 4.4 S 7 13 4 7 1016.5 1016.4 0.0
12/10:30am 22.8 23.5 15.6 64 4.3 SE 6 9 3 5 1016.5 1016.4 0.0
12/10:00am 21.6 22.4 14.7 65 4.1 SE 4 7 2 4 1016.9 1016.8 0.0
12/09:30am 21.6 21.9 15.0 66 3.9 ESE 7 11 4 6 1017.0 1016.9 0.0
12/09:00am 21.2 21.6 15.3 69 3.5 ESE 7 13 4 7 1016.9 1016.8 0.0
12/08:30am 20.2 20.0 14.6 70 3.3 ESE 9 11 5 6 1016.8 1016.7 0.0
12/08:00am 19.4 19.3 14.9 75 2.6 ESE 9 15 5 8 1016.4 1016.3 0.0
12/07:30am 17.9 18.2 14.6 81 1.9 SE 6 9 3 5 1016.5 1016.4 0.0
12/07:00am 16.5 16.4 13.8 84 1.5 SSE 7 13 4 7 1016.5 1016.4 0.0
12/06:30am 16.6 16.6 14.1 85 1.4 S 7 13 4 7 1016.5 1016.4 0.0
12/06:00am 16.8 16.1 14.3 85 1.4 S 11 15 6 8 1016.3 1016.2 0.0
12/05:30am 16.9 16.6 14.4 85 1.4 S 9 15 5 8 1016.0 1015.9 0.0
12/05:00am 16.9 16.5 14.0 83 1.6 S 9 15 5 8 1016.0 1015.9 0.0
12/04:30am 17.3 16.6 14.4 83 1.7 S 11 15 6 8 1016.1 1016.0 0.0
12/04:00am 17.5 17.3 14.8 84 1.6 SSE 9 15 5 8 1016.3 1016.2 0.0
12/03:30am 17.3 16.6 14.4 83 1.7 SSE 11 17 6 9 1016.4 1016.3 0.0
12/03:00am 17.4 16.8 14.5 83 1.7 S 11 17 6 9 1016.5 1016.4 0.0
12/02:30am 17.7 17.5 14.6 82 1.8 SSE 9 13 5 7 1016.6 1016.5 0.0
12/02:00am 17.6 17.6 14.3 81 1.9 SSE 7 13 4 7 1016.8 1016.7 0.0
12/01:30am 17.9 17.6 14.4 80 2.0 SSE 9 15 5 8 1017.1 1017.0 0.0
12/01:00am 18.1 17.7 14.2 78 2.2 SSE 9 15 5 8 1017.5 1017.4 0.0
12/12:30am 18.2 17.8 14.1 77 2.4 SSE 9 15 5 8 1017.8 1017.7 0.0
12/12:00am 18.5 17.8 14.2 76 2.5 SSE 11 15 6 8 1017.7 1017.6 0.0
 
Date/Time
EDT
Tmp

°C
App
Tmp
°C
Dew
Point
°C
Rel
Hum
%
Delta-T

°C
Wind Press
QNH
hPa
Press
MSL
hPa
Rain
since
9 am
mm
Dir
 
Spd
km/h
Gust
km/h
Spd
kts
Gust
kts
11/11:30pm 18.4 17.7 14.3 77 2.4 SSE 11 19 6 10 1017.9 1017.8 0.0
11/11:00pm 18.0 17.7 14.5 80 2.0 SSE 9 13 5 7 1018.0 1017.9 0.0
11/10:30pm 17.9 17.2 14.2 79 2.1 SSE 11 15 6 8 1018.2 1018.1 0.0
11/10:00pm 18.2 17.6 14.7 80 2.0 SSE 11 17 6 9 1018.1 1018.0 0.0
11/09:30pm 18.2 16.9 14.7 80 2.0 SSE 15 20 8 11 1017.8 1017.7 0.0
11/09:00pm 18.3 17.7 14.6 79 2.1 SSE 11 19 6 10 1017.3 1017.2 0.0
11/08:30pm 18.6 17.2 14.5 77 2.4 SSE 15 24 8 13 1016.9 1016.8 0.0
11/08:00pm 19.5 18.1 14.5 73 2.9 SSE 15 22 8 12 1016.5 1016.4 0.0
11/07:30pm 21.0 19.6 14.6 67 3.7 S 15 24 8 13 1016.5 1016.4 0.0
11/07:00pm 21.8 20.3 15.2 66 3.9 S 17 20 9 11 1016.2 1016.1 0.0
11/06:30pm 22.9 21.3 15.0 61 4.7 S 17 22 9 12 1015.9 1015.8 0.0
11/06:00pm 23.4 21.8 14.9 59 5.1 S 17 24 9 13 1015.6 1015.5 0.0
11/05:30pm 23.7 22.0 15.7 61 4.8 S 19 24 10 13 1015.7 1015.6 0.0
11/05:00pm 24.0 22.7 16.8 64 4.4 S 19 26 10 14 1015.8 1015.7 0.0
11/04:30pm 24.2 23.4 17.0 64 4.4 S 17 24 9 13 1015.8 1015.7 0.0
11/04:00pm 24.0 22.6 16.5 63 4.6 S 19 26 10 14 1015.8 1015.7 0.0
11/03:30pm 24.1 23.4 16.4 62 4.7 S 15 26 8 14 1015.7 1015.6 0.0
11/03:00pm 24.7 24.5 16.7 61 4.9 S 13 24 7 13 1016.1 1016.0 0.0
11/02:30pm 24.8 24.6 15.7 57 5.5 S 11 17 6 9 1016.1 1016.0 0.0
11/02:00pm 23.1 21.9 14.1 57 5.3 S 13 20 7 11 1016.5 1016.4 0.0
11/01:30pm 24.5 24.9 16.2 60 5.1 S 9 15 5 8 1016.5 1016.4 0.0
11/01:00pm 23.6 23.3 14.3 56 5.5 S 9 19 5 10 1016.6 1016.5 0.0
11/12:30pm 23.6 24.3 14.6 57 5.3 S 4 13 2 7 1016.9 1016.8 0.0
11/12:00pm 24.1 25.5 15.3 58 5.3 S 2 15 1 8 1017.3 1017.2 0.0
11/11:30am 22.1 22.1 14.2 61 4.6 S 7 15 4 8 1017.6 1017.5 0.0
11/11:00am 23.1 23.5 16.2 65 4.2 S 9 15 5 8 1017.7 1017.6 0.0
11/10:30am 20.2 20.4 14.3 69 3.4 SE 6 9 3 5 1017.8 1017.7 0.0
11/10:00am 19.8 20.2 15.2 75 2.7 ESE 7 13 4 7 1017.7 1017.6 0.0
11/09:30am 18.9 19.2 14.4 75 2.6 SE 6 9 3 5 1017.6 1017.5 0.0
11/09:00am 18.8 19.1 14.9 78 2.3 SE 7 9 4 5 1017.5 1017.4 0.0
11/08:30am 19.0 19.5 14.1 73 2.8 SE 4 6 2 3 1017.3 1017.2 0.0
11/08:00am 18.7 19.4 14.6 77 2.4 SSE 4 7 2 4 1017.2 1017.1 0.0
11/07:30am 17.6 18.2 14.3 81 1.9 S 4 7 2 4 1016.9 1016.8 0.0
11/07:00am 17.2 17.4 14.1 82 1.8 S 6 9 3 5 1016.7 1016.6 0.0
11/06:30am 17.0 17.1 13.9 82 1.8 S 6 11 3 6 1016.4 1016.3 0.0
11/06:00am 16.9 16.8 13.8 82 1.8 S 7 9 4 5 1016.0 1015.9 0.0
11/05:30am 17.1 17.2 13.8 81 1.9 S 6 11 3 6 1015.8 1015.7 0.0
11/05:00am 17.1 17.0 13.8 81 1.9 S 7 11 4 6 1015.6 1015.5 0.0
11/04:30am 17.5 17.4 14.0 80 2.0 S 7 11 4 6 1015.4 1015.3 0.0
11/04:00am 17.9 17.8 14.0 78 2.2 S 7 13 4 7 1015.4 1015.3 0.0
11/03:30am 18.0 18.0 14.3 79 2.1 S 7 17 4 9 1015.5 1015.4 0.0
11/03:00am 17.8 18.3 15.1 84 1.6 S 6 13 3 7 1015.6 1015.5 0.0
11/02:30am 17.5 17.9 14.8 84 1.6 SSE 6 9 3 5 1015.8 1015.7 0.0
11/02:00am 17.5 17.8 14.6 83 1.7 SSW 6 11 3 6 1016.0 1015.9 0.0
11/01:30am 17.7 18.0 14.4 81 1.9 SW 6 9 3 5 1016.2 1016.1 0.0
11/01:00am 18.1 18.4 14.6 80 2.0 SSW 6 11 3 6 1016.3 1016.2 0.0
11/12:30am 18.1 18.4 14.4 79 2.1 SSW 6 11 3 6 1016.5 1016.4 0.0
11/12:00am 18.1 18.2 14.4 79 2.1 SW 7 11 4 6 1016.5 1016.4 0.0
 
Date/Time
EDT
Tmp

°C
App
Tmp
°C
Dew
Point
°C
Rel
Hum
%
Delta-T

°C
Wind Press
QNH
hPa
Press
MSL
hPa
Rain
since
9 am
mm
Dir
 
Spd
km/h
Gust
km/h
Spd
kts
Gust
kts
10/11:30pm 18.4 18.2 14.7 79 2.1 SW 9 15 5 8 1016.6 1016.5 0.0
10/11:00pm 18.1 18.4 14.6 80 2.0 SSW 6 13 3 7 1016.6 1016.5 0.0
10/10:30pm 17.8 18.0 14.3 80 2.0 SW 6 11 3 6 1016.5 1016.4 0.0
10/10:00pm 17.7 17.7 14.2 80 2.0 SW 7 11 4 6 1016.4 1016.3 0.0
10/09:30pm 17.7 17.9 14.2 80 2.0 SW 6 9 3 5 1016.2 1016.1 0.0
10/09:00pm 17.9 17.9 14.2 79 2.1 SSW 7 11 4 6 1015.9 1015.8 0.0
10/08:30pm 18.1 18.0 14.0 77 2.3 SSW 7 13 4 7 1015.8 1015.7 0.0
10/08:00pm 18.8 18.6 13.6 72 3.0 S 7 11 4 6 1015.6 1015.5 0.0
10/07:30pm 19.5 19.4 13.9 70 3.2 S 7 13 4 7 1015.4 1015.3 0.0
10/07:00pm 20.4 20.0 14.1 67 3.6 S 9 17 5 9 1015.2 1015.1 0.0
10/06:30pm 21.5 21.3 14.6 65 4.1 S 9 17 5 9 1015.0 1014.9 0.0

Latest Capital City Observations: Canberra | Sydney | Melbourne | Brisbane | Adelaide | Perth | Hobart | Darwin

Other Formats:

Comma delimited format used in spreadsheet applications
http://www.bom.gov.au/fwo/IDV60901/IDV60901.94892.axf

JavaScript Object Notation format (JSON) in row-major order
http://www.bom.gov.au/fwo/IDV60901/IDV60901.94892.json